Time;durP1;ratioP1;P1;durP2;ratioP2;P2;SDS_P1;SDS_P2;PMS_P1;PMS_P2;Temp;Humidity;BMP_temperature;BMP_pressure;BME280_temperature;BME280_humidity;BME280_pressure;Samples;Min_cycle;Max_cycle;Signal;HPM_P1;HPM_P2
2024/03/23 00:01:13;;;;;;;3.10;2.43;;;13.90;99.90;;;;;;5003106;28;20467;-47
2024/03/23 00:03:44;;;;;;;2.77;2.27;;;13.90;99.90;;;;;;4998151;28;20993;-46
2024/03/23 00:06:14;;;;;;;2.70;2.30;;;13.90;99.90;;;;;;4990122;28;20444;-47
2024/03/23 00:08:44;;;;;;;2.83;2.20;;;13.90;99.90;;;;;;4993320;28;20456;-48
2024/03/23 00:11:14;;;;;;;3.80;2.20;;;13.90;99.90;;;;;;4997143;28;20424;-48
2024/03/23 00:13:45;;;;;;;3.40;2.40;;;13.90;99.90;;;;;;4989808;28;20454;-47
2024/03/23 00:16:14;;;;;;;2.63;1.97;;;13.90;99.90;;;;;;5005775;28;20929;-48
2024/03/23 00:18:45;;;;;;;2.63;2.40;;;13.90;99.90;;;;;;4994741;28;20523;-47
2024/03/23 00:21:15;;;;;;;2.60;2.10;;;13.90;99.90;;;;;;5003505;28;20562;-47
2024/03/23 00:23:46;;;;;;;3.17;1.97;;;13.90;99.90;;;;;;4995656;28;20441;-47
2024/03/23 00:26:15;;;;;;;2.07;1.70;;;13.90;99.90;;;;;;4991220;28;20784;-47
2024/03/23 00:28:46;;;;;;;2.37;1.63;;;13.90;99.90;;;;;;4999784;28;20539;-47
2024/03/23 00:31:16;;;;;;;2.73;1.80;;;13.90;99.90;;;;;;4999022;28;20914;-47
2024/03/23 00:33:46;;;;;;;2.57;2.27;;;13.90;99.90;;;;;;4995926;28;20532;-47
2024/03/23 00:36:16;;;;;;;4.93;2.90;;;13.90;99.90;;;;;;5000909;28;20717;-47
2024/03/23 00:38:47;;;;;;;4.20;2.10;;;13.90;99.90;;;;;;4995065;28;20469;-46
2024/03/23 00:41:17;;;;;;;2.73;2.07;;;13.90;99.90;;;;;;4994797;28;20481;-47
2024/03/23 00:43:48;;;;;;;3.30;1.90;;;13.90;99.90;;;;;;5003462;28;20535;-48
2024/03/23 00:46:17;;;;;;;3.80;2.27;;;13.90;99.90;;;;;;5003678;28;20440;-47
2024/03/23 00:48:48;;;;;;;3.37;2.10;;;13.90;99.90;;;;;;4998098;28;20450;-48
2024/03/23 00:51:18;;;;;;;2.67;2.10;;;13.90;99.90;;;;;;5005012;28;20519;-47
2024/03/23 00:53:47;;;;;;;3.03;2.30;;;13.90;99.90;;;;;;4999089;28;21064;-47
2024/03/23 00:56:13;;;;;;;3.80;2.00;;;13.90;99.90;;;;;;5005496;28;20528;-47
2024/03/23 00:58:40;;;;;;;4.97;2.20;;;13.90;99.90;;;;;;4990436;28;20988;-47
2024/03/23 01:01:06;;;;;;;3.00;2.03;;;13.90;99.90;;;;;;4997522;28;20467;-49
2024/03/23 01:03:33;;;;;;;3.17;2.67;;;13.90;99.90;;;;;;4994062;28;20941;-47
2024/03/23 01:05:59;;;;;;;3.73;2.40;;;13.80;99.90;;;;;;4997222;28;20943;-49
2024/03/23 01:08:26;;;;;;;3.83;2.63;;;13.80;99.90;;;;;;4991388;28;20631;-48
2024/03/23 01:10:58;;;;;;;2.53;1.90;;;13.80;99.90;;;;;;4998641;28;20523;-47
2024/03/23 01:13:26;;;;;;;3.77;2.17;;;13.80;99.90;;;;;;4994727;28;20858;-48
2024/03/23 01:15:53;;;;;;;2.90;1.70;;;13.80;99.90;;;;;;4994219;28;20443;-47
2024/03/23 01:18:20;;;;;;;2.90;2.33;;;13.80;99.90;;;;;;4990011;28;21141;-47
2024/03/23 01:20:46;;;;;;;3.67;2.00;;;13.80;99.90;;;;;;4998599;28;20468;-47
2024/03/23 01:23:13;;;;;;;3.60;1.93;;;13.80;99.90;;;;;;4998177;28;20438;-47
2024/03/23 01:25:39;;;;;;;4.73;2.43;;;13.80;99.90;;;;;;4995099;28;20441;-48
2024/03/23 01:28:09;;;;;;;4.23;2.00;;;13.80;99.90;;;;;;4999109;28;20941;-47
2024/03/23 01:30:35;;;;;;;2.10;1.63;;;13.80;99.90;;;;;;4997982;28;20430;-47
2024/03/23 01:33:03;;;;;;;4.03;1.87;;;13.80;99.90;;;;;;4992309;28;20571;-47
2024/03/23 01:35:29;;;;;;;2.63;2.37;;;13.80;99.90;;;;;;4995179;28;20432;-47
2024/03/23 01:37:56;;;;;;;2.43;2.00;;;13.80;99.90;;;;;;4989980;28;20969;-47
2024/03/23 01:40:22;;;;;;;2.93;2.60;;;13.80;99.90;;;;;;4990462;28;20438;-48
2024/03/23 01:42:59;;;;;;;1.97;1.40;;;13.80;99.90;;;;;;4991225;28;20441;-47
2024/03/23 01:45:27;;;;;;;3.20;2.30;;;13.80;99.90;;;;;;4973482;28;20571;-48
2024/03/23 01:47:54;;;;;;;1.97;1.57;;;13.80;99.90;;;;;;4975303;28;20552;-47
2024/03/23 01:50:21;;;;;;;2.97;1.83;;;13.80;99.90;;;;;;4990802;28;20439;-48
2024/03/23 01:52:49;;;;;;;2.20;1.50;;;13.80;99.90;;;;;;5008640;28;20798;-47
2024/03/23 01:55:15;;;;;;;2.43;2.03;;;13.80;99.90;;;;;;4999490;28;20441;-47
2024/03/23 01:57:42;;;;;;;3.83;2.40;;;13.80;99.90;;;;;;4989255;28;20452;-47
2024/03/23 02:00:09;;;;;;;3.93;2.13;;;13.80;99.90;;;;;;4997735;28;20444;-48
2024/03/23 02:02:44;;;;;;;2.23;1.80;;;13.70;99.90;;;;;;4998139;28;21116;-47
2024/03/23 02:05:11;;;;;;;2.80;2.17;;;13.70;99.90;;;;;;4997913;28;20535;-49
2024/03/23 02:07:39;;;;;;;2.73;2.03;;;13.70;99.90;;;;;;4996055;28;20448;-48
2024/03/23 02:10:06;;;;;;;2.80;2.00;;;13.70;99.90;;;;;;4999242;28;20431;-47
2024/03/23 02:12:34;;;;;;;4.67;2.10;;;13.70;99.90;;;;;;5001264;28;20435;-48
2024/03/23 02:15:00;;;;;;;3.33;2.00;;;13.70;99.90;;;;;;4991750;28;20453;-47
2024/03/23 02:17:27;;;;;;;2.97;2.07;;;13.70;99.90;;;;;;5000364;28;20828;-46
2024/03/23 02:19:54;;;;;;;3.13;1.97;;;13.70;99.90;;;;;;4997614;28;21039;-48
2024/03/23 02:22:21;;;;;;;4.03;1.70;;;13.70;99.90;;;;;;4995331;28;20469;-46
2024/03/23 02:24:49;;;;;;;3.10;2.40;;;13.70;99.90;;;;;;4998062;28;20433;-47
2024/03/23 02:27:16;;;;;;;2.47;1.70;;;13.70;99.90;;;;;;4994248;28;20434;-48
2024/03/23 02:29:42;;;;;;;3.07;2.27;;;13.70;99.90;;;;;;5001034;28;20554;-47
2024/03/23 02:32:09;;;;;;;2.53;1.87;;;13.70;99.90;;;;;;4991672;28;20433;-48
2024/03/23 02:34:36;;;;;;;3.73;2.17;;;13.70;99.90;;;;;;4999022;28;20437;-47
2024/03/23 02:37:03;;;;;;;2.70;1.63;;;13.70;99.90;;;;;;5006212;28;20873;-48
2024/03/23 02:39:29;;;;;;;2.70;2.10;;;13.70;99.90;;;;;;4989568;28;20549;-48
2024/03/23 02:41:58;;;;;;;2.47;1.70;;;13.70;99.90;;;;;;4999884;28;20546;-47
2024/03/23 02:44:24;;;;;;;3.20;1.73;;;13.70;99.90;;;;;;4993169;28;20442;-48
2024/03/23 02:46:51;;;;;;;3.00;1.43;;;13.70;99.90;;;;;;4995424;28;20822;-48
2024/03/23 02:49:17;;;;;;;2.87;2.23;;;13.70;99.90;;;;;;5000828;28;21040;-47
2024/03/23 02:51:45;;;;;;;2.27;1.53;;;13.70;99.90;;;;;;5001413;28;20773;-46
2024/03/23 02:54:11;;;;;;;4.20;1.70;;;13.70;99.90;;;;;;5001521;28;20448;-46
2024/03/23 02:56:38;;;;;;;3.67;1.87;;;13.70;99.90;;;;;;4993390;28;21027;-47
2024/03/23 02:59:05;;;;;;;4.10;1.77;;;13.60;99.90;;;;;;5002135;28;20487;-47
2024/03/23 03:01:32;;;;;;;3.03;1.77;;;13.70;99.90;;;;;;4997900;28;20515;-49
2024/03/23 03:04:00;;;;;;;3.30;2.27;;;13.70;99.90;;;;;;5000552;28;20440;-50
2024/03/23 03:06:27;;;;;;;2.37;1.63;;;13.60;99.90;;;;;;5006965;28;20964;-50
2024/03/23 03:08:53;;;;;;;2.53;1.80;;;13.70;99.90;;;;;;5001661;28;20582;-47
2024/03/23 03:11:21;;;;;;;4.10;2.33;;;13.70;99.90;;;;;;4991641;28;20440;-48
2024/03/23 03:13:47;;;;;;;2.60;1.43;;;13.60;99.90;;;;;;4993347;28;20556;-46
2024/03/23 03:16:15;;;;;;;2.37;1.40;;;13.60;99.90;;;;;;5004943;28;20495;-47
2024/03/23 03:18:41;;;;;;;2.43;1.93;;;13.60;99.90;;;;;;4994040;28;20562;-48
2024/03/23 03:21:10;;;;;;;4.47;2.13;;;13.60;99.90;;;;;;4992036;28;20534;-47
2024/03/23 03:23:37;;;;;;;2.80;2.00;;;13.60;99.90;;;;;;5006115;28;20514;-47
2024/03/23 03:26:04;;;;;;;2.47;1.70;;;13.60;99.90;;;;;;4993801;28;20445;-48
2024/03/23 03:28:32;;;;;;;2.80;1.60;;;13.60;99.90;;;;;;5003196;28;20534;-47
2024/03/23 03:30:59;;;;;;;3.03;1.97;;;13.70;99.90;;;;;;4998876;28;20480;-48
2024/03/23 03:33:27;;;;;;;3.30;2.00;;;13.60;99.90;;;;;;5000050;28;20813;-46
2024/03/23 03:35:54;;;;;;;1.73;1.27;;;13.60;99.90;;;;;;4999625;28;20446;-47
2024/03/23 03:38:20;;;;;;;2.43;1.60;;;13.60;99.90;;;;;;5008147;28;20451;-48
2024/03/23 03:40:47;;;;;;;4.03;1.93;;;13.60;99.90;;;;;;5002616;28;20517;-49
2024/03/23 03:43:13;;;;;;;2.23;1.47;;;13.60;99.90;;;;;;4998320;28;20785;-47
2024/03/23 03:45:41;;;;;;;2.00;1.63;;;13.60;99.90;;;;;;4997834;28;20523;-47
2024/03/23 03:48:07;;;;;;;2.13;1.27;;;13.60;99.90;;;;;;5008591;28;20456;-48
2024/03/23 03:50:35;;;;;;;1.90;1.50;;;13.60;99.90;;;;;;4996062;28;20442;-47
2024/03/23 03:53:01;;;;;;;2.60;1.63;;;13.60;99.90;;;;;;5000569;28;21193;-47
2024/03/23 03:55:28;;;;;;;1.77;1.30;;;13.60;99.90;;;;;;4995393;28;20439;-47
2024/03/23 03:57:55;;;;;;;1.60;1.50;;;13.60;99.90;;;;;;4991414;28;20819;-48
2024/03/23 04:00:22;;;;;;;3.40;1.63;;;13.60;99.90;;;;;;4992021;28;20493;-48
2024/03/23 04:02:48;;;;;;;2.30;1.73;;;13.60;99.90;;;;;;5005525;28;20472;-47
2024/03/23 04:05:15;;;;;;;2.10;1.30;;;13.60;99.90;;;;;;5007487;28;20852;-47
2024/03/23 04:07:42;;;;;;;2.07;1.63;;;13.50;99.90;;;;;;4991591;28;20449;-48
2024/03/23 04:10:10;;;;;;;3.60;1.73;;;13.60;99.90;;;;;;4999951;28;20444;-48
2024/03/23 04:12:36;;;;;;;2.87;1.70;;;13.60;99.90;;;;;;4992090;28;20470;-47
2024/03/23 04:15:04;;;;;;;2.23;1.70;;;13.50;99.90;;;;;;5002663;28;20438;-47
2024/03/23 04:17:31;;;;;;;1.90;1.40;;;13.50;99.90;;;;;;4998351;28;20448;-48
2024/03/23 04:19:59;;;;;;;2.90;1.63;;;13.50;99.90;;;;;;4999286;28;20481;-47
2024/03/23 04:22:26;;;;;;;2.87;1.70;;;13.60;99.90;;;;;;4993239;28;20888;-48
2024/03/23 04:24:55;;;;;;;2.30;1.40;;;13.60;99.90;;;;;;4994261;28;20449;-46
2024/03/23 04:27:21;;;;;;;4.23;1.57;;;13.50;99.90;;;;;;4993502;28;20447;-48
2024/03/23 04:29:49;;;;;;;2.50;1.70;;;13.50;99.90;;;;;;4994007;28;20493;-47
2024/03/23 04:32:15;;;;;;;3.27;1.40;;;13.50;99.90;;;;;;4991882;28;20431;-48
2024/03/23 04:34:43;;;;;;;3.10;2.00;;;13.50;99.90;;;;;;5003294;28;20843;-47
2024/03/23 04:37:10;;;;;;;2.60;1.43;;;13.50;99.90;;;;;;4993368;28;20445;-47
2024/03/23 04:39:38;;;;;;;3.30;1.60;;;13.50;99.90;;;;;;4997625;28;20468;-47
2024/03/23 04:42:07;;;;;;;2.07;1.20;;;13.50;99.90;;;;;;4997267;28;20467;-47
2024/03/23 04:44:34;;;;;;;5.07;1.80;;;13.50;99.90;;;;;;4991199;28;20751;-47
2024/03/23 04:47:01;;;;;;;1.77;1.03;;;13.50;99.90;;;;;;4999841;28;20461;-48
2024/03/23 04:49:28;;;;;;;2.27;1.47;;;13.50;99.90;;;;;;5001937;28;20489;-47
2024/03/23 04:51:56;;;;;;;2.67;1.67;;;13.50;99.90;;;;;;4994627;28;21401;-48
2024/03/23 04:54:24;;;;;;;2.00;1.80;;;13.50;99.90;;;;;;4991309;28;20818;-47
2024/03/23 04:56:50;;;;;;;2.00;1.30;;;13.50;99.90;;;;;;4996408;28;20541;-48
2024/03/23 04:59:18;;;;;;;3.63;1.63;;;13.50;99.90;;;;;;4990476;28;20469;-48
2024/03/23 05:01:44;;;;;;;3.33;1.50;;;13.50;99.90;;;;;;5000886;28;20460;-47
2024/03/23 05:04:11;;;;;;;2.37;1.60;;;13.50;99.90;;;;;;5006926;28;20538;-47
2024/03/23 05:06:38;;;;;;;2.40;1.40;;;13.50;99.90;;;;;;4996443;28;20476;-48
2024/03/23 05:09:06;;;;;;;3.43;1.50;;;13.50;99.90;;;;;;4999026;28;20460;-50
2024/03/23 05:11:33;;;;;;;6.17;1.60;;;13.50;99.90;;;;;;4998858;28;20450;-48
2024/03/23 05:14:00;;;;;;;2.60;1.43;;;13.40;99.90;;;;;;4998740;28;20945;-47
2024/03/23 05:16:28;;;;;;;2.60;1.80;;;13.50;99.90;;;;;;4991387;28;20520;-48
2024/03/23 05:18:55;;;;;;;2.20;1.30;;;13.40;99.90;;;;;;4997149;28;20460;-47
2024/03/23 05:21:21;;;;;;;2.47;1.33;;;13.40;99.90;;;;;;5004537;28;20476;-48
2024/03/23 05:23:48;;;;;;;2.57;1.20;;;13.40;99.90;;;;;;4997399;28;20803;-47
2024/03/23 05:26:14;;;;;;;4.10;1.50;;;13.40;99.90;;;;;;4991060;28;20440;-47
2024/03/23 05:28:41;;;;;;;2.63;1.30;;;13.40;99.90;;;;;;4990160;28;20547;-47
2024/03/23 05:31:08;;;;;;;4.37;2.10;;;13.40;99.90;;;;;;5004728;28;20535;-47
2024/03/23 05:33:38;;;;;;;2.57;1.47;;;13.40;99.90;;;;;;5000879;28;20442;-48
2024/03/23 05:36:05;;;;;;;4.50;1.63;;;13.40;99.90;;;;;;5004984;28;20451;-47
2024/03/23 05:38:32;;;;;;;1.83;1.10;;;13.40;99.90;;;;;;4993081;28;20461;-47
2024/03/23 05:41:00;;;;;;;3.30;1.43;;;13.40;99.90;;;;;;4998011;28;20935;-47
2024/03/23 05:43:28;;;;;;;2.10;1.50;;;13.40;99.90;;;;;;4990145;28;20884;-47
2024/03/23 05:45:55;;;;;;;4.40;1.70;;;13.40;99.90;;;;;;4994669;28;20421;-50
2024/03/23 05:48:22;;;;;;;2.70;1.57;;;13.40;99.90;;;;;;4993248;28;20462;-46
2024/03/23 05:50:50;;;;;;;2.20;1.33;;;13.40;99.90;;;;;;4998292;28;20435;-48
2024/03/23 05:53:17;;;;;;;4.63;2.13;;;13.40;99.90;;;;;;4998498;28;20428;-47
2024/03/23 05:55:44;;;;;;;2.50;1.47;;;13.40;99.90;;;;;;4989783;28;20538;-47
2024/03/23 05:58:11;;;;;;;2.77;1.37;;;13.40;99.90;;;;;;4993010;28;20464;-47
2024/03/23 06:00:37;;;;;;;2.27;1.60;;;13.30;99.90;;;;;;4997917;28;20533;-47
2024/03/23 06:03:05;;;;;;;4.20;1.63;;;13.30;99.90;;;;;;4994706;28;20467;-47
2024/03/23 06:05:31;;;;;;;4.80;2.27;;;13.30;99.90;;;;;;4997353;28;20422;-47
2024/03/23 06:07:59;;;;;;;1.80;1.30;;;13.30;99.90;;;;;;4996921;28;20521;-48
2024/03/23 06:10:26;;;;;;;2.30;1.80;;;13.30;99.90;;;;;;4994136;28;20591;-47
2024/03/23 06:12:53;;;;;;;2.40;1.37;;;13.30;99.90;;;;;;4990705;28;20538;-47
2024/03/23 06:15:19;;;;;;;3.00;1.73;;;13.30;99.90;;;;;;4989831;28;20938;-47
2024/03/23 06:17:47;;;;;;;2.13;1.60;;;13.30;99.90;;;;;;4997033;28;20451;-47
2024/03/23 06:20:13;;;;;;;2.30;1.60;;;13.30;99.90;;;;;;5004699;28;20437;-49
2024/03/23 06:22:40;;;;;;;4.20;1.73;;;13.30;99.90;;;;;;5002079;28;20461;-48
2024/03/23 06:25:08;;;;;;;1.60;1.40;;;13.30;99.90;;;;;;5002054;28;20489;-47
2024/03/23 06:27:35;;;;;;;3.53;1.70;;;13.30;99.90;;;;;;5002044;28;20436;-47
2024/03/23 06:30:02;;;;;;;2.70;1.47;;;13.30;99.90;;;;;;4999304;28;20503;-47
2024/03/23 06:32:29;;;;;;;2.37;1.73;;;13.30;99.90;;;;;;4993957;28;20442;-47
2024/03/23 06:34:55;;;;;;;3.03;2.00;;;13.30;99.90;;;;;;5001812;28;20448;-47
2024/03/23 06:37:23;;;;;;;1.97;1.30;;;13.30;99.90;;;;;;5001456;28;20431;-48
2024/03/23 06:39:49;;;;;;;3.97;2.10;;;13.20;99.90;;;;;;4998631;28;20962;-47
2024/03/23 06:42:17;;;;;;;3.93;1.73;;;13.20;99.90;;;;;;4995192;28;21167;-46
2024/03/23 06:44:44;;;;;;;3.83;2.10;;;13.30;99.90;;;;;;5001502;28;20434;-48
2024/03/23 06:47:11;;;;;;;3.50;2.17;;;13.20;99.90;;;;;;5001608;28;20927;-46
2024/03/23 06:49:37;;;;;;;1.80;1.50;;;13.30;99.90;;;;;;5001256;28;20546;-47
2024/03/23 06:52:04;;;;;;;3.40;1.70;;;13.30;99.90;;;;;;5001441;28;20818;-48
2024/03/23 06:54:30;;;;;;;3.00;2.00;;;13.30;99.90;;;;;;4996194;28;20444;-47
2024/03/23 06:56:58;;;;;;;3.30;1.50;;;13.20;99.90;;;;;;4998357;28;20483;-49
2024/03/23 06:59:25;;;;;;;4.13;2.17;;;13.30;99.90;;;;;;4994942;28;20552;-47
2024/03/23 07:01:52;;;;;;;4.10;1.67;;;13.30;99.90;;;;;;4997532;28;20500;-48
2024/03/23 07:04:18;;;;;;;2.20;1.60;;;13.30;99.90;;;;;;4992348;28;20483;-47
2024/03/23 07:06:46;;;;;;;1.93;1.50;;;13.30;99.90;;;;;;4999279;28;20444;-47
2024/03/23 07:09:12;;;;;;;2.47;1.47;;;13.30;99.90;;;;;;4992481;28;20825;-47
2024/03/23 07:11:39;;;;;;;4.23;2.27;;;13.30;99.90;;;;;;5001683;28;20820;-47
2024/03/23 07:14:05;;;;;;;1.93;1.40;;;13.30;99.90;;;;;;4993610;28;20436;-47
2024/03/23 07:16:34;;;;;;;2.13;1.50;;;13.30;99.90;;;;;;5001038;28;20520;-49
2024/03/23 07:19:01;;;;;;;2.83;2.17;;;13.30;99.90;;;;;;4996497;28;20473;-48
2024/03/23 07:21:27;;;;;;;2.37;1.73;;;13.30;99.90;;;;;;4997713;28;20471;-47
2024/03/23 07:23:54;;;;;;;5.00;2.07;;;13.30;99.90;;;;;;5001233;28;20429;-46
2024/03/23 07:26:21;;;;;;;5.40;1.93;;;13.30;99.90;;;;;;5001281;28;20968;-47
2024/03/23 07:28:49;;;;;;;2.90;1.97;;;13.30;99.90;;;;;;4992192;28;20467;-46
2024/03/23 07:31:15;;;;;;;2.20;1.17;;;13.30;99.90;;;;;;4977763;28;20464;-47
2024/03/23 07:33:45;;;;;;;2.80;1.53;;;13.30;99.90;;;;;;5001855;28;20421;-46
2024/03/23 07:36:12;;;;;;;3.40;1.30;;;13.30;99.90;;;;;;5004431;28;21074;-47
2024/03/23 07:38:41;;;;;;;3.57;1.53;;;13.20;99.90;;;;;;5002247;28;20521;-47
2024/03/23 07:41:08;;;;;;;1.87;1.40;;;13.20;99.90;;;;;;5003780;28;20526;-47
2024/03/23 07:43:36;;;;;;;1.80;1.20;;;13.20;99.90;;;;;;4992495;28;20464;-48
2024/03/23 07:46:03;;;;;;;2.63;1.50;;;13.20;99.90;;;;;;4993823;28;20795;-49
2024/03/23 07:48:31;;;;;;;2.50;1.83;;;13.20;99.90;;;;;;5003479;28;20464;-46
2024/03/23 07:51:00;;;;;;;2.00;1.00;;;13.20;99.90;;;;;;5001382;28;20462;-47
2024/03/23 07:53:27;;;;;;;1.87;1.40;;;13.20;99.90;;;;;;5024185;28;20666;-48
2024/03/23 07:55:58;;;;;;;4.73;1.70;;;13.20;99.90;;;;;;4993468;28;20773;-46
2024/03/23 07:58:25;;;;;;;2.10;1.67;;;13.20;99.90;;;;;;5001411;28;20465;-47
2024/03/23 08:00:52;;;;;;;2.03;1.57;;;13.20;99.90;;;;;;4997275;28;20419;-47
2024/03/23 08:03:19;;;;;;;4.50;1.73;;;13.30;99.90;;;;;;4998048;28;20559;-47
2024/03/23 08:05:46;;;;;;;2.87;1.90;;;13.20;99.90;;;;;;5010733;28;20463;-47
2024/03/23 08:08:14;;;;;;;1.80;1.20;;;13.30;99.90;;;;;;5001023;28;20514;-48
2024/03/23 08:10:50;;;;;;;1.67;1.00;;;13.30;99.90;;;;;;4999156;28;20449;-47
2024/03/23 08:13:18;;;;;;;2.17;1.23;;;13.30;99.90;;;;;;5003406;28;20431;-47
2024/03/23 08:15:44;;;;;;;2.80;1.57;;;13.30;99.90;;;;;;4991765;28;20446;-47
2024/03/23 08:18:15;;;;;;;2.10;1.40;;;13.30;99.90;;;;;;4991569;28;20455;-48
2024/03/23 08:20:42;;;;;;;2.90;1.63;;;13.30;99.90;;;;;;4990712;28;20456;-47
2024/03/23 08:23:09;;;;;;;2.20;1.33;;;13.30;99.90;;;;;;4997441;28;20550;-47
2024/03/23 08:25:37;;;;;;;2.37;1.53;;;13.30;99.90;;;;;;5007947;28;20859;-47
2024/03/23 08:28:04;;;;;;;3.07;1.80;;;13.30;99.90;;;;;;5000823;28;20561;-48
2024/03/23 08:30:31;;;;;;;2.27;1.63;;;13.30;99.90;;;;;;4992148;28;20435;-47
2024/03/23 08:32:59;;;;;;;3.33;2.00;;;13.30;99.90;;;;;;5000729;28;20480;-48
2024/03/23 08:35:25;;;;;;;2.23;1.40;;;13.30;99.90;;;;;;5006817;28;20545;-48
2024/03/23 08:37:52;;;;;;;3.40;2.03;;;13.20;99.90;;;;;;4993361;28;20536;-48
2024/03/23 08:40:18;;;;;;;3.70;2.30;;;13.20;99.90;;;;;;4998535;28;20594;-47
2024/03/23 08:42:47;;;;;;;10.43;2.50;;;13.20;99.90;;;;;;4981594;28;20457;-49
2024/03/23 08:45:13;;;;;;;2.47;2.13;;;13.20;99.90;;;;;;4997292;28;20585;-49
2024/03/23 08:47:40;;;;;;;2.30;1.73;;;13.20;99.90;;;;;;5003978;28;20457;-49
2024/03/23 08:50:07;;;;;;;3.00;1.93;;;13.20;99.90;;;;;;4999328;28;20922;-49
2024/03/23 08:52:34;;;;;;;2.47;1.73;;;13.20;99.90;;;;;;5002820;28;20423;-49
2024/03/23 08:55:01;;;;;;;3.23;2.47;;;13.20;99.90;;;;;;5001592;28;20434;-49
2024/03/23 08:57:28;;;;;;;2.67;1.30;;;13.20;99.90;;;;;;5000932;28;20492;-48
2024/03/23 08:59:56;;;;;;;6.30;1.97;;;13.20;99.90;;;;;;4999101;28;20452;-48
2024/03/23 09:02:23;;;;;;;4.80;1.90;;;13.20;99.90;;;;;;4998959;28;20557;-49
2024/03/23 09:04:49;;;;;;;3.00;1.60;;;13.20;99.90;;;;;;4991431;28;20491;-49
2024/03/23 09:07:16;;;;;;;3.87;1.73;;;13.10;99.90;;;;;;4985773;28;20431;-49
2024/03/23 09:09:42;;;;;;;3.57;1.47;;;13.10;99.90;;;;;;4997725;28;20621;-49
2024/03/23 09:12:10;;;;;;;5.00;1.87;;;13.20;99.90;;;;;;4998185;28;20498;-49
2024/03/23 09:14:36;;;;;;;5.07;1.70;;;13.20;99.90;;;;;;5003468;28;20800;-48
2024/03/23 09:17:05;;;;;;;2.43;1.63;;;13.20;99.90;;;;;;4999396;28;20482;-49
2024/03/23 09:19:31;;;;;;;4.23;1.40;;;13.10;99.90;;;;;;4990345;28;20473;-48
2024/03/23 09:21:59;;;;;;;3.10;1.43;;;13.20;99.90;;;;;;4998777;28;20443;-50
2024/03/23 09:24:25;;;;;;;3.73;1.63;;;13.10;99.90;;;;;;4992729;28;20819;-49
2024/03/23 09:26:53;;;;;;;1.83;1.50;;;13.10;99.90;;;;;;5002245;28;20940;-48
2024/03/23 09:29:19;;;;;;;4.13;1.87;;;13.20;99.90;;;;;;5004475;28;20459;-49
2024/03/23 09:31:46;;;;;;;1.90;1.23;;;13.20;99.90;;;;;;5001775;28;20453;-49
2024/03/23 09:34:15;;;;;;;1.73;1.17;;;13.10;99.90;;;;;;4997304;28;20807;-48
2024/03/23 09:36:42;;;;;;;3.00;1.50;;;13.10;99.90;;;;;;5009469;28;20437;-49
2024/03/23 09:39:09;;;;;;;4.37;1.50;;;13.10;99.90;;;;;;4991861;28;20556;-49
2024/03/23 09:41:36;;;;;;;4.80;1.80;;;13.10;99.90;;;;;;5002027;28;20484;-49
2024/03/23 09:44:03;;;;;;;4.13;1.73;;;13.10;99.90;;;;;;5000120;28;20470;-47
2024/03/23 09:46:34;;;;;;;3.77;1.50;;;13.10;99.90;;;;;;4999166;28;20440;-47
2024/03/23 09:49:00;;;;;;;1.67;1.30;;;13.10;99.90;;;;;;4996531;28;20456;-47
2024/03/23 09:51:29;;;;;;;1.77;1.33;;;13.20;99.90;;;;;;4998067;28;20442;-47
2024/03/23 09:53:55;;;;;;;3.20;1.80;;;13.20;99.90;;;;;;4993327;28;20456;-47
2024/03/23 09:56:23;;;;;;;2.50;1.20;;;13.20;99.90;;;;;;4999759;28;20487;-47
2024/03/23 09:58:49;;;;;;;4.97;1.60;;;13.20;99.90;;;;;;4995544;28;20453;-47
2024/03/23 10:01:17;;;;;;;3.03;1.80;;;13.10;99.90;;;;;;4997859;28;20435;-47
2024/03/23 10:03:43;;;;;;;2.50;1.27;;;13.10;99.90;;;;;;4981186;28;20460;-46
2024/03/23 10:06:11;;;;;;;1.93;1.27;;;13.10;99.90;;;;;;5002512;28;20443;-48
2024/03/23 10:08:38;;;;;;;2.90;1.63;;;13.10;99.90;;;;;;4989835;28;20946;-47
2024/03/23 10:11:16;;;;;;;3.67;2.00;;;13.10;99.90;;;;;;4996997;28;20477;-50
2024/03/23 10:13:43;;;;;;;3.20;1.40;;;13.10;99.90;;;;;;4994791;28;20429;-47
2024/03/23 10:16:11;;;;;;;1.50;1.17;;;13.10;99.90;;;;;;5000615;28;20524;-47
2024/03/23 10:18:38;;;;;;;1.93;0.90;;;13.10;99.90;;;;;;4994566;28;20566;-48
2024/03/23 10:21:10;;;;;;;2.17;1.10;;;13.10;99.90;;;;;;4996305;28;20448;-47
2024/03/23 10:23:39;;;;;;;3.13;1.07;;;13.00;99.90;;;;;;4997002;28;20459;-49
2024/03/23 10:26:18;;;;;;;2.40;1.07;;;13.00;99.90;;;;;;5004643;28;20930;-49
2024/03/23 10:28:52;;;;;;;3.67;1.40;;;13.10;99.90;;;;;;4995766;28;20553;-47
2024/03/23 10:31:21;;;;;;;8.40;1.43;;;13.00;95.20;;;;;;4999759;28;20452;-46
2024/03/23 10:33:48;;;;;;;4.77;1.43;;;12.80;95.10;;;;;;4996885;28;20430;-48
2024/03/23 10:36:15;;;;;;;4.17;1.47;;;12.80;96.50;;;;;;5000436;28;20427;-48
2024/03/23 10:38:44;;;;;;;3.60;1.47;;;12.70;97.70;;;;;;4998058;28;20469;-49
2024/03/23 10:41:11;;;;;;;4.30;1.60;;;12.70;98.20;;;;;;4997744;28;20437;-49
2024/03/23 10:43:39;;;;;;;7.37;1.67;;;12.80;99.00;;;;;;4988352;28;20490;-49
2024/03/23 10:46:06;;;;;;;1.70;1.10;;;12.80;99.40;;;;;;5002662;28;21118;-49
2024/03/23 10:48:33;;;;;;;3.53;1.60;;;12.80;99.60;;;;;;5023680;28;20480;-49
2024/03/23 10:51:00;;;;;;;4.07;1.20;;;12.90;99.40;;;;;;5005369;28;21026;-49
2024/03/23 10:53:28;;;;;;;4.07;1.70;;;12.90;99.40;;;;;;4993939;28;20464;-47
2024/03/23 10:55:57;;;;;;;2.80;1.00;;;13.00;99.40;;;;;;5003775;28;20437;-47
2024/03/23 10:58:28;;;;;;;4.27;1.50;;;12.90;99.60;;;;;;4998246;28;20976;-46
2024/03/23 11:00:56;;;;;;;3.77;1.50;;;13.00;99.50;;;;;;5001402;28;20476;-47
2024/03/23 11:03:36;;;;;;;2.03;1.07;;;13.00;99.80;;;;;;5006857;28;20465;-48
2024/03/23 11:06:04;;;;;;;1.93;1.10;;;13.00;99.90;;;;;;5007928;28;20935;-48
2024/03/23 11:08:32;;;;;;;2.37;1.10;;;13.00;99.90;;;;;;5002626;28;20529;-50
2024/03/23 11:11:20;;;;;;;3.63;1.30;;;13.00;99.80;;;;;;5000105;28;20955;-47
2024/03/23 11:13:48;;;;;;;6.80;1.73;;;13.00;99.90;;;;;;4992325;28;21003;-48
2024/03/23 11:16:17;;;;;;;2.77;1.03;;;13.00;99.90;;;;;;4992211;28;20436;-48
2024/03/23 11:18:44;;;;;;;3.60;1.60;;;13.00;99.90;;;;;;4995926;28;20518;-47
2024/03/23 11:21:12;;;;;;;3.50;1.60;;;13.00;99.70;;;;;;5001552;28;20507;-47
2024/03/23 11:23:38;;;;;;;2.63;1.40;;;13.00;99.80;;;;;;4998521;28;20458;-50
2024/03/23 11:26:08;;;;;;;3.27;1.43;;;13.00;99.90;;;;;;5002190;28;21027;-48
2024/03/23 11:28:36;;;;;;;3.93;1.27;;;13.00;99.60;;;;;;4996169;28;20544;-47
2024/03/23 11:31:10;;;;;;;3.47;1.37;;;13.00;99.90;;;;;;4999455;28;20431;-48
2024/03/23 11:33:36;;;;;;;2.43;1.27;;;13.00;99.90;;;;;;5004835;28;20469;-47
2024/03/23 11:36:04;;;;;;;4.47;2.33;;;13.00;99.90;;;;;;5001053;28;20455;-48
2024/03/23 11:38:36;;;;;;;3.23;0.90;;;13.00;99.90;;;;;;4991692;28;20538;-47
2024/03/23 11:41:04;;;;;;;2.10;1.07;;;13.00;99.90;;;;;;4997136;28;20487;-50
2024/03/23 11:43:30;;;;;;;3.23;1.23;;;13.00;99.90;;;;;;4994925;28;20548;-49
2024/03/23 11:46:02;;;;;;;2.70;1.10;;;13.00;99.90;;;;;;4997236;28;20556;-49
2024/03/23 11:48:30;;;;;;;3.23;1.47;;;13.00;99.90;;;;;;4995099;28;20830;-50
2024/03/23 11:51:00;;;;;;;3.00;1.40;;;13.00;99.80;;;;;;5002759;28;20440;-49
2024/03/23 11:53:27;;;;;;;3.57;1.20;;;13.00;99.40;;;;;;5004113;28;20464;-48
2024/03/23 11:55:56;;;;;;;2.70;1.70;;;13.00;99.40;;;;;;4993624;28;20453;-47
2024/03/23 11:58:24;;;;;;;2.03;1.07;;;13.00;99.40;;;;;;5000820;28;20539;-47
2024/03/23 12:00:53;;;;;;;2.17;1.10;;;13.00;99.50;;;;;;4993839;28;20475;-50
2024/03/23 12:03:21;;;;;;;2.00;1.03;;;13.00;99.50;;;;;;5000879;28;20903;-47
2024/03/23 12:05:53;;;;;;;2.77;1.20;;;13.00;99.90;;;;;;5001026;28;20451;-47
2024/03/23 12:08:21;;;;;;;3.27;1.43;;;13.10;99.50;;;;;;4995876;28;20476;-49
2024/03/23 12:10:51;;;;;;;3.90;1.50;;;13.10;99.50;;;;;;5004392;28;20442;-49
2024/03/23 12:13:18;;;;;;;2.07;1.27;;;13.00;99.40;;;;;;4991379;28;21130;-49
2024/03/23 12:15:46;;;;;;;2.90;1.67;;;13.10;99.50;;;;;;5001457;28;20430;-49
2024/03/23 12:18:13;;;;;;;2.47;1.10;;;13.00;99.80;;;;;;4975517;28;20562;-50
2024/03/23 12:20:42;;;;;;;4.70;1.37;;;13.00;99.40;;;;;;5001513;28;20432;-49
2024/03/23 12:23:09;;;;;;;2.30;1.30;;;13.00;99.50;;;;;;5008188;28;21060;-48
2024/03/23 12:25:39;;;;;;;1.80;1.50;;;13.00;99.80;;;;;;4994674;28;20437;-49
2024/03/23 12:28:06;;;;;;;2.00;1.10;;;13.00;99.90;;;;;;4996807;28;20464;-48
2024/03/23 12:30:36;;;;;;;3.33;1.50;;;13.00;99.90;;;;;;4979459;28;20441;-49
2024/03/23 12:33:03;;;;;;;2.00;1.10;;;13.00;99.90;;;;;;4989927;28;20860;-47
2024/03/23 12:35:30;;;;;;;2.03;1.30;;;13.00;99.40;;;;;;4990374;28;20967;-48
2024/03/23 12:37:58;;;;;;;1.63;1.00;;;13.00;99.40;;;;;;4989460;28;20450;-48
2024/03/23 12:40:26;;;;;;;1.50;1.00;;;12.90;99.50;;;;;;5016062;28;20474;-47
2024/03/23 12:42:52;;;;;;;2.17;0.73;;;12.90;99.70;;;;;;4990823;28;20438;-47
2024/03/23 12:45:19;;;;;;;1.87;1.67;;;12.90;99.90;;;;;;4995986;28;20431;-47
2024/03/23 12:47:46;;;;;;;3.73;1.00;;;12.90;99.90;;;;;;4989442;28;20446;-47
2024/03/23 12:50:13;;;;;;;4.33;1.20;;;12.90;99.90;;;;;;4989300;28;20458;-47